Time;durP1;ratioP1;P1;durP2;ratioP2;P2;SDS_P1;SDS_P2;PMS_P1;PMS_P2;Temp;Humidity;BMP_temperature;BMP_pressure;BME280_temperature;BME280_humidity;BME280_pressure;Samples;Min_cycle;Max_cycle;Signal;HPM_P1;HPM_P2
2023/04/07 00:00:40;;;;;;;30.38;18.55;;;;;;;9.77;91.04;101196.03;3613922;39;20051;-71
2023/04/07 00:03:06;;;;;;;36.10;19.15;;;;;;;9.78;91.21;101200.44;3614599;39;20266;-71
2023/04/07 00:05:32;;;;;;;28.73;18.33;;;;;;;9.76;91.41;101202.34;3611880;39;20155;-71
2023/04/07 00:07:57;;;;;;;24.90;16.40;;;;;;;9.79;91.30;101199.47;3612801;39;20051;-72
2023/04/07 00:10:24;;;;;;;30.98;17.65;;;;;;;9.52;91.65;101149.00;3613058;39;20058;-71
2023/04/07 00:12:50;;;;;;;29.95;19.48;;;;;;;9.80;90.96;101198.56;3614089;39;20829;-71
2023/04/07 00:15:16;;;;;;;27.55;19.02;;;;;;;9.81;90.89;101192.22;3612268;39;20057;-71
2023/04/07 00:17:41;;;;;;;29.38;18.38;;;;;;;9.81;90.38;101192.22;3614945;39;20090;-72
2023/04/07 00:20:08;;;;;;;29.67;17.42;;;;;;;9.83;90.32;101203.78;3613254;39;20085;-71
2023/04/07 00:22:33;;;;;;;29.15;18.90;;;;;;;9.60;90.28;101161.13;3610950;39;20054;-71
2023/04/07 00:24:59;;;;;;;27.33;18.92;;;;;;;9.75;90.48;101195.25;3612729;39;20069;-71
2023/04/07 00:27:25;;;;;;;26.92;18.90;;;;;;;9.80;89.70;101206.63;3612977;39;20050;-71
2023/04/07 00:29:53;;;;;;;28.73;18.95;;;;;;;9.67;89.75;101189.38;3613133;39;20301;-71
2023/04/07 00:32:19;;;;;;;29.45;18.92;;;;;;;9.71;89.63;101202.59;3613882;39;20277;-72
2023/04/07 00:34:45;;;;;;;27.48;19.00;;;;;;;9.78;90.66;101208.50;3613982;39;20053;-71
2023/04/07 00:37:10;;;;;;;26.40;17.77;;;;;;;9.79;90.40;101206.69;3613425;39;20046;-71
2023/04/07 00:39:36;;;;;;;30.30;19.75;;;;;;;9.78;89.62;101203.13;3616010;39;20070;-71
2023/04/07 00:42:04;;;;;;;32.28;19.50;;;;;;;9.54;90.12;101163.19;3616725;39;20389;-71
2023/04/07 00:44:30;;;;;;;28.92;18.98;;;;;;;9.74;89.18;101205.13;3614756;39;20672;-71
2023/04/07 00:46:57;;;;;;;29.88;18.60;;;;;;;9.68;89.40;101192.00;3614095;39;20058;-71
2023/04/07 00:49:23;;;;;;;28.50;19.25;;;;;;;9.71;89.71;101191.00;3614812;39;20408;-71
2023/04/07 00:51:49;;;;;;;30.08;18.77;;;;;;;9.71;89.90;101196.34;3612933;39;20063;-72
2023/04/07 00:54:15;;;;;;;28.38;18.80;;;;;;;9.70;88.90;101199.97;3614489;39;20404;-72
2023/04/07 00:56:41;;;;;;;27.17;18.70;;;;;;;9.68;88.91;101202.75;3607929;39;20050;-72
2023/04/07 00:59:06;;;;;;;27.55;18.77;;;;;;;9.67;88.90;101206.38;3616935;39;20061;-71
2023/04/07 01:01:47;;;;;;;31.98;19.42;;;;;;;9.33;89.26;101147.34;3604769;39;20659;-71
2023/04/07 01:04:32;;;;;;;28.85;19.30;;;;;;;9.68;89.84;101208.13;3615526;39;20416;-71
2023/04/07 01:07:10;;;;;;;28.42;19.05;;;;;;;9.69;89.32;101208.97;3613096;39;20071;-71
2023/04/07 01:09:47;;;;;;;31.35;19.40;;;;;;;9.68;89.24;101207.25;3612068;39;21564;-72
2023/04/07 01:12:38;;;;;;;26.80;18.83;;;;;;;9.68;89.98;101212.63;3615444;39;20118;-71
2023/04/07 01:15:11;;;;;;;28.92;19.67;;;;;;;9.68;89.12;101208.13;3615005;39;20059;-71
2023/04/07 01:17:47;;;;;;;34.03;21.03;;;;;;;9.67;89.97;101210.88;3613721;39;20754;-71
2023/04/07 01:20:18;;;;;;;31.67;19.27;;;;;;;9.66;90.23;101203.75;3611265;39;20123;-71
2023/04/07 01:22:56;;;;;;;33.60;20.67;;;;;;;9.62;89.49;101196.84;3613220;39;20050;-71
2023/04/07 01:25:50;;;;;;;30.23;21.38;;;;;;;9.65;89.70;101210.09;3612976;39;20056;-71
2023/04/07 01:28:43;;;;;;;28.15;19.58;;;;;;;9.31;89.52;101155.47;3614676;39;20070;-71
2023/04/07 01:31:13;;;;;;;30.45;20.25;;;;;;;9.52;88.88;101202.66;3610276;39;20394;-71
2023/04/07 01:33:44;;;;;;;30.33;20.83;;;;;;;9.57;89.90;101223.03;3614478;39;20413;-71
2023/04/07 01:36:12;;;;;;;27.52;19.48;;;;;;;9.55;89.63;101209.69;3614164;39;20100;-71
2023/04/07 01:38:39;;;;;;;30.23;19.70;;;;;;;9.55;89.69;101217.75;3614803;39;20067;-71
2023/04/07 01:41:09;;;;;;;23.85;17.58;;;;;;;9.53;89.25;101219.63;3614499;39;20321;-71
2023/04/07 01:43:39;;;;;;;27.33;17.65;;;;;;;9.51;88.47;101214.38;3615050;39;20654;-71
2023/04/07 01:46:04;;;;;;;24.65;16.40;;;;;;;9.51;88.54;101225.09;3615612;39;20078;-70
2023/04/07 01:48:33;;;;;;;24.85;15.73;;;;;;;9.46;88.82;101221.78;3605099;39;20069;-71
2023/04/07 01:51:00;;;;;;;21.13;13.88;;;;;;;9.44;87.94;101220.09;3613041;39;20300;-71
2023/04/07 01:53:26;;;;;;;21.27;13.82;;;;;;;9.47;87.29;101231.53;3615962;39;20065;-71
2023/04/07 01:55:53;;;;;;;19.60;12.50;;;;;;;9.43;87.63;101237.16;3614114;39;20062;-71
2023/04/07 01:58:19;;;;;;;16.55;11.45;;;;;;;9.42;87.33;101228.25;3616806;39;20059;-71
2023/04/07 02:00:45;;;;;;;17.25;12.80;;;;;;;9.46;86.49;101240.56;3614935;39;20073;-71
2023/04/07 02:03:19;;;;;;;16.98;11.50;;;;;;;9.46;87.29;101235.19;3609841;39;20118;-70
2023/04/07 02:05:49;;;;;;;16.17;10.75;;;;;;;9.45;86.92;101252.25;3614468;39;20055;-72
2023/04/07 02:08:20;;;;;;;18.15;11.32;;;;;;;9.46;86.96;101240.56;3615060;39;20055;-71
2023/04/07 02:10:50;;;;;;;15.48;11.38;;;;;;;9.47;86.68;101239.59;3614172;39;20054;-71
2023/04/07 02:13:19;;;;;;;18.35;11.13;;;;;;;9.51;87.46;101233.16;3615584;39;20051;-71
2023/04/07 02:15:49;;;;;;;17.20;10.90;;;;;;;9.52;86.41;101237.56;3612495;39;20054;-71
2023/04/07 02:18:18;;;;;;;18.88;11.30;;;;;;;9.28;85.82;101203.91;3614626;39;20115;-71
2023/04/07 02:20:47;;;;;;;16.45;11.52;;;;;;;9.50;86.61;101233.22;3613334;39;20042;-70
2023/04/07 02:23:13;;;;;;;17.98;10.82;;;;;;;9.50;86.62;101241.25;3613197;39;20057;-71
2023/04/07 02:25:39;;;;;;;19.35;11.00;;;;;;;9.51;85.96;101242.97;3611827;39;20050;-71
2023/04/07 02:28:05;;;;;;;14.05;10.57;;;;;;;9.48;86.36;101236.00;3615897;39;20063;-72
2023/04/07 02:30:32;;;;;;;17.40;10.55;;;;;;;9.22;86.63;101196.16;3614509;39;20111;-71
2023/04/07 02:32:58;;;;;;;16.50;11.60;;;;;;;9.46;85.76;101234.31;3618843;39;20051;-71
2023/04/07 02:35:24;;;;;;;17.25;10.80;;;;;;;9.16;85.68;101177.69;3613152;39;20462;-71
2023/04/07 02:37:50;;;;;;;16.50;11.38;;;;;;;9.43;86.23;101231.78;3613783;39;20058;-71
2023/04/07 02:40:16;;;;;;;19.40;12.13;;;;;;;9.41;85.71;101231.00;3613546;39;20062;-71
2023/04/07 02:42:42;;;;;;;20.88;12.88;;;;;;;9.41;86.42;101236.34;3614013;39;20468;-71
2023/04/07 02:45:10;;;;;;;18.52;12.63;;;;;;;9.42;85.96;101235.41;3614589;39;20046;-71
2023/04/07 02:47:37;;;;;;;15.02;12.02;;;;;;;8.92;85.85;101153.00;3616247;39;20881;-71
2023/04/07 02:50:03;;;;;;;20.85;12.93;;;;;;;9.38;86.28;101240.06;3617539;39;20269;-71
2023/04/07 02:52:29;;;;;;;19.10;13.55;;;;;;;9.39;85.97;101239.13;3614748;39;20195;-72
2023/04/07 02:54:54;;;;;;;20.15;13.38;;;;;;;9.41;85.61;101239.03;3615243;39;20062;-71
2023/04/07 02:57:20;;;;;;;20.02;13.50;;;;;;;9.39;85.79;101233.75;3615443;39;20059;-71
2023/04/07 02:59:46;;;;;;;21.00;13.88;;;;;;;9.39;85.81;101239.13;3616356;39;20063;-71
2023/04/07 03:02:11;;;;;;;21.50;13.65;;;;;;;9.40;85.93;101237.31;3615570;39;20308;-70
2023/04/07 03:04:37;;;;;;;20.63;12.77;;;;;;;9.41;86.59;101237.22;3615034;39;20059;-71
2023/04/07 03:07:03;;;;;;;19.27;12.45;;;;;;;9.42;86.03;101243.44;3615458;39;20090;-71
2023/04/07 03:09:28;;;;;;;16.55;11.98;;;;;;;9.40;86.05;101240.84;3616112;39;20063;-70
2023/04/07 03:11:54;;;;;;;21.38;13.55;;;;;;;9.40;86.34;101237.31;3603111;39;20054;-71
2023/04/07 03:14:20;;;;;;;20.42;12.25;;;;;;;9.39;86.15;101235.59;3614540;39;20049;-70
2023/04/07 03:16:45;;;;;;;20.08;12.88;;;;;;;9.42;86.78;101246.13;3616147;39;20058;-70
2023/04/07 03:19:11;;;;;;;22.67;13.15;;;;;;;9.41;86.60;101244.41;3614476;39;20095;-70
2023/04/07 03:21:37;;;;;;;22.33;13.57;;;;;;;9.41;86.79;101247.94;3608771;39;20309;-70
2023/04/07 03:24:04;;;;;;;19.48;13.23;;;;;;;9.41;86.16;101241.72;3612742;39;20318;-70
2023/04/07 03:26:30;;;;;;;22.65;12.70;;;;;;;9.44;86.70;101242.44;3612956;39;20059;-70
2023/04/07 03:28:55;;;;;;;19.98;12.40;;;;;;;9.39;86.25;101239.13;3614637;39;20062;-70
2023/04/07 03:31:21;;;;;;;18.77;12.13;;;;;;;9.43;86.96;101246.06;3616235;39;20046;-70
2023/04/07 03:33:49;;;;;;;20.10;12.73;;;;;;;9.43;85.99;101235.34;3612779;39;20479;-70
2023/04/07 03:36:16;;;;;;;17.15;11.77;;;;;;;9.39;85.85;101239.13;3613039;39;20471;-70
2023/04/07 03:38:42;;;;;;;17.73;12.40;;;;;;;9.36;85.89;101244.66;3613462;39;20047;-70
2023/04/07 03:41:07;;;;;;;18.60;12.70;;;;;;;9.33;86.72;101233.22;3613087;39;20055;-70
2023/04/07 03:43:33;;;;;;;21.92;12.98;;;;;;;9.32;86.93;101243.03;3615811;39;20046;-69
2023/04/07 03:45:59;;;;;;;20.30;12.52;;;;;;;9.29;87.20;101237.81;3616604;39;20080;-70
2023/04/07 03:48:25;;;;;;;18.92;12.23;;;;;;;9.30;86.89;101240.44;3617808;39;20063;-69
2023/04/07 03:50:50;;;;;;;21.95;12.95;;;;;;;9.29;86.96;101237.81;3614682;39;20073;-70
2023/04/07 03:53:18;;;;;;;20.33;12.55;;;;;;;9.27;86.27;101237.91;3616429;39;20057;-69
2023/04/07 03:55:44;;;;;;;17.85;12.43;;;;;;;9.26;87.17;101246.03;3616771;39;20366;-69
2023/04/07 03:58:10;;;;;;;24.35;13.93;;;;;;;9.25;86.79;101246.97;3618386;39;20066;-70
2023/04/07 04:00:35;;;;;;;20.58;13.10;;;;;;;9.23;87.03;101248.91;3614234;39;20471;-69
2023/04/07 04:03:02;;;;;;;22.63;14.10;;;;;;;9.20;87.26;101235.63;3613461;39;20090;-68
2023/04/07 04:05:28;;;;;;;22.65;15.15;;;;;;;9.22;87.66;101245.31;3611644;39;20119;-70
2023/04/07 04:07:54;;;;;;;21.38;14.20;;;;;;;9.23;86.97;101248.91;3611477;39;20074;-69
2023/04/07 04:10:20;;;;;;;25.85;16.80;;;;;;;9.20;86.81;101254.41;3613560;39;20047;-70
2023/04/07 04:12:49;;;;;;;25.00;15.32;;;;;;;9.16;86.55;101247.44;3615720;39;20429;-70
2023/04/07 04:15:15;;;;;;;21.05;13.90;;;;;;;9.14;87.03;101244.84;3606357;39;20428;-69
2023/04/07 04:17:41;;;;;;;27.80;15.45;;;;;;;8.36;87.26;101122.63;3611984;39;20046;-70
2023/04/07 04:20:08;;;;;;;23.77;13.13;;;;;;;9.13;86.70;101242.22;3611867;39;20119;-70
2023/04/07 04:22:35;;;;;;;23.05;13.90;;;;;;;9.10;88.17;101239.69;3612304;39;20304;-69
2023/04/07 04:25:00;;;;;;;22.95;14.00;;;;;;;9.05;87.68;101246.16;3615016;39;20389;-70
2023/04/07 04:27:27;;;;;;;24.55;14.05;;;;;;;9.06;87.85;101247.88;3614777;39;20240;-69
2023/04/07 04:29:53;;;;;;;27.95;13.63;;;;;;;8.87;87.71;101222.91;3611119;39;20332;-70
2023/04/07 04:32:20;;;;;;;26.40;13.55;;;;;;;8.84;87.23;101225.75;3613775;39;20070;-70
2023/04/07 04:34:46;;;;;;;22.63;13.57;;;;;;;8.95;87.28;101249.38;3611325;39;20058;-69
2023/04/07 04:37:11;;;;;;;22.48;13.85;;;;;;;8.91;88.10;101245.97;3613431;39;20059;-70
2023/04/07 04:39:37;;;;;;;25.58;13.80;;;;;;;8.66;88.03;101202.50;3610825;39;20143;-69
2023/04/07 04:42:03;;;;;;;22.25;14.10;;;;;;;8.98;87.12;101254.59;3615624;39;20075;-69
2023/04/07 04:44:29;;;;;;;22.13;13.48;;;;;;;9.01;87.77;101259.81;3616583;39;20050;-68
2023/04/07 04:46:55;;;;;;;23.88;13.40;;;;;;;8.94;88.10;101247.59;3614522;39;20059;-68
2023/04/07 04:49:21;;;;;;;21.10;12.90;;;;;;;9.03;87.80;101274.84;3613859;39;20046;-69
2023/04/07 04:51:47;;;;;;;21.63;13.38;;;;;;;9.04;87.47;101273.06;3613435;39;20139;-69
2023/04/07 04:54:12;;;;;;;25.98;13.32;;;;;;;9.02;87.23;101278.47;3612068;39;20065;-69
2023/04/07 04:56:38;;;;;;;24.42;12.93;;;;;;;9.00;87.76;101275.00;3611911;39;20054;-69
2023/04/07 04:59:04;;;;;;;25.40;13.82;;;;;;;9.00;87.66;101282.16;3615131;39;20073;-69
2023/04/07 05:01:30;;;;;;;21.20;13.50;;;;;;;8.98;87.21;101284.94;3612777;39;20289;-69
2023/04/07 05:03:55;;;;;;;25.80;13.70;;;;;;;8.98;87.54;101289.44;3615375;39;20054;-69
2023/04/07 05:06:21;;;;;;;26.77;13.88;;;;;;;8.98;87.67;101292.13;3614849;39;20050;-69
2023/04/07 05:08:47;;;;;;;24.67;14.20;;;;;;;8.20;88.02;101157.28;3612724;39;20127;-69
2023/04/07 05:11:13;;;;;;;24.90;12.77;;;;;;;8.92;87.05;101287.91;3613474;39;20649;-68
2023/04/07 05:13:38;;;;;;;27.30;13.95;;;;;;;8.94;87.18;101296.72;3614824;39;20062;-69
2023/04/07 05:16:05;;;;;;;24.65;14.60;;;;;;;8.94;87.52;101296.72;3616303;39;20039;-69
2023/04/07 05:18:31;;;;;;;28.15;14.75;;;;;;;8.97;88.19;101301.09;3615504;39;20680;-68
2023/04/07 05:20:56;;;;;;;25.02;13.90;;;;;;;8.96;87.31;101308.28;3613351;39;20076;-69
2023/04/07 05:23:22;;;;;;;28.75;14.65;;;;;;;8.96;87.93;101302.03;3613972;39;20293;-69
2023/04/07 05:25:48;;;;;;;24.50;13.85;;;;;;;8.96;87.34;101310.94;3613453;39;20058;-69
2023/04/07 05:28:14;;;;;;;25.92;14.60;;;;;;;8.97;87.46;101311.81;3615785;39;20179;-69
2023/04/07 05:30:39;;;;;;;24.70;14.90;;;;;;;8.97;87.54;101320.72;3614431;39;20062;-68
2023/04/07 05:33:05;;;;;;;26.10;14.82;;;;;;;8.98;87.77;101313.56;3614452;39;20053;-69
2023/04/07 05:35:31;;;;;;;27.58;14.93;;;;;;;8.98;87.74;101324.31;3613482;39;20127;-69
2023/04/07 05:37:56;;;;;;;30.35;15.35;;;;;;;9.00;87.54;101325.06;3614382;39;20058;-67
2023/04/07 05:40:23;;;;;;;30.50;14.13;;;;;;;8.83;86.89;101288.34;3614757;39;20047;-69
2023/04/07 05:42:48;;;;;;;27.55;15.38;;;;;;;9.01;87.84;101319.66;3601797;39;20401;-68
2023/04/07 05:45:14;;;;;;;27.77;14.63;;;;;;;9.02;87.23;101325.88;3614934;39;20063;-70
2023/04/07 05:47:40;;;;;;;29.27;16.25;;;;;;;9.00;87.93;101314.34;3618542;39;20043;-69
2023/04/07 05:50:06;;;;;;;27.45;15.48;;;;;;;9.03;87.97;101314.22;3615150;39;20081;-69
2023/04/07 05:52:32;;;;;;;25.10;15.82;;;;;;;9.05;87.91;101321.25;3613446;39;20047;-69
2023/04/07 05:54:57;;;;;;;31.70;17.52;;;;;;;9.05;87.85;101323.91;3613200;39;20514;-69
2023/04/07 05:57:23;;;;;;;28.77;16.55;;;;;;;9.06;87.07;101322.97;3602979;39;20059;-69
2023/04/07 05:59:49;;;;;;;29.65;17.75;;;;;;;9.06;87.73;101319.44;3616555;39;20058;-69
2023/04/07 06:02:15;;;;;;;28.05;16.88;;;;;;;9.04;87.18;101322.19;3614569;39;20389;-69
2023/04/07 06:04:40;;;;;;;27.25;16.48;;;;;;;9.05;87.50;101323.06;3603056;39;20043;-69
2023/04/07 06:07:06;;;;;;;31.90;17.80;;;;;;;9.03;87.36;101327.63;3605731;39;20050;-68
2023/04/07 06:09:32;;;;;;;28.88;17.08;;;;;;;8.97;88.60;101312.69;3613828;39;20050;-68
2023/04/07 06:11:58;;;;;;;27.33;17.50;;;;;;;9.07;88.64;101335.47;3612592;39;20071;-69
2023/04/07 06:14:25;;;;;;;28.60;17.33;;;;;;;8.68;87.96;101256.91;3618682;39;20050;-69
2023/04/07 06:16:50;;;;;;;28.83;18.67;;;;;;;9.11;88.23;101346.03;3615570;39;20051;-69
2023/04/07 06:19:16;;;;;;;25.55;17.92;;;;;;;9.10;88.38;101341.59;3614442;39;20064;-68
2023/04/07 06:21:42;;;;;;;32.80;18.02;;;;;;;9.12;87.88;101342.41;3604323;39;20050;-68
2023/04/07 06:24:07;;;;;;;31.50;18.98;;;;;;;9.09;87.87;101339.88;3613671;39;20042;-68
2023/04/07 06:26:33;;;;;;;29.63;19.30;;;;;;;9.00;88.45;101322.41;3616169;39;20058;-68
2023/04/07 06:28:59;;;;;;;28.48;19.23;;;;;;;9.06;87.66;101341.75;3613601;39;20155;-68
2023/04/07 06:31:25;;;;;;;29.10;19.58;;;;;;;9.13;88.54;101345.00;3616449;39;20051;-68
2023/04/07 06:33:51;;;;;;;32.35;20.30;;;;;;;9.16;88.27;101344.84;3614783;39;20393;-67
2023/04/07 06:36:17;;;;;;;30.20;19.58;;;;;;;8.97;88.49;101318.03;3614615;39;20071;-67
2023/04/07 06:38:43;;;;;;;30.90;19.63;;;;;;;9.21;88.70;101352.69;3613052;39;20309;-67
2023/04/07 06:41:15;;;;;;;28.98;18.98;;;;;;;9.24;88.69;101348.06;3612294;39;20099;-67
2023/04/07 06:43:46;;;;;;;28.85;18.42;;;;;;;9.29;89.08;101355.88;3616084;39;20039;-67
2023/04/07 06:46:12;;;;;;;26.13;18.98;;;;;;;9.31;88.83;101351.31;3614844;39;20070;-67
2023/04/07 06:48:37;;;;;;;28.67;18.90;;;;;;;9.38;88.76;101355.44;3614153;39;20062;-67
2023/04/07 06:51:03;;;;;;;29.80;18.33;;;;;;;9.44;89.12;101355.13;3612549;39;20055;-67
2023/04/07 06:53:29;;;;;;;26.75;17.42;;;;;;;9.47;88.34;101354.97;3618295;39;20058;-65
2023/04/07 06:56:10;;;;;;;27.00;17.35;;;;;;;9.52;88.41;101355.63;3612449;39;20093;-66
2023/04/07 06:58:37;;;;;;;28.05;17.60;;;;;;;9.34;88.48;101331.53;3612945;39;20667;-67
2023/04/07 07:01:04;;;;;;;27.27;16.98;;;;;;;9.58;88.34;101361.63;3613976;39;20058;-67
2023/04/07 07:03:31;;;;;;;29.55;17.05;;;;;;;9.67;87.92;101367.44;3606294;39;20071;-67
2023/04/07 07:05:58;;;;;;;25.38;16.38;;;;;;;9.73;88.41;101367.13;3612996;39;20457;-67
2023/04/07 07:08:25;;;;;;;24.63;16.00;;;;;;;9.81;87.83;101369.44;3616176;39;20046;-69
2023/04/07 07:10:52;;;;;;;22.08;14.68;;;;;;;9.85;87.46;101371.00;3614197;39;20050;-67
2023/04/07 07:13:22;;;;;;;22.20;14.38;;;;;;;9.95;87.79;101372.28;3614910;39;20055;-67
2023/04/07 07:15:49;;;;;;;21.58;12.88;;;;;;;9.99;87.09;101371.19;3613162;39;20058;-67
2023/04/07 07:18:15;;;;;;;20.10;13.35;;;;;;;10.05;85.85;101371.81;3614107;39;20062;-67
2023/04/07 07:20:41;;;;;;;20.15;12.90;;;;;;;10.05;85.83;101371.81;3616707;39;20411;-67
2023/04/07 07:23:07;;;;;;;18.48;11.48;;;;;;;9.83;85.69;101346.06;3614147;39;20047;-68
2023/04/07 07:25:32;;;;;;;16.95;12.00;;;;;;;10.06;85.65;101378.94;3613367;39;20322;-66
2023/04/07 07:27:58;;;;;;;17.95;11.13;;;;;;;10.10;84.48;101373.34;3613222;39;20071;-67
2023/04/07 07:30:24;;;;;;;18.20;10.30;;;;;;;10.24;85.17;101377.97;3616927;39;20039;-66
2023/04/07 07:32:52;;;;;;;17.63;10.68;;;;;;;10.35;84.40;101382.84;3614819;39;20098;-66
2023/04/07 07:35:18;;;;;;;14.38;10.18;;;;;;;10.44;84.96;101388.63;3611969;39;20111;-67
2023/04/07 07:37:44;;;;;;;14.82;8.50;;;;;;;10.49;82.15;101395.56;3616757;39;20050;-66
2023/04/07 07:40:10;;;;;;;13.73;8.57;;;;;;;10.59;82.29;101391.44;3616421;39;20054;-67
2023/04/07 07:42:36;;;;;;;15.10;8.35;;;;;;;10.49;81.49;101374.94;3615684;39;20054;-67
2023/04/07 07:45:03;;;;;;;14.18;7.78;;;;;;;10.72;80.34;101400.63;3613602;39;20043;-67
2023/04/07 07:47:29;;;;;;;12.70;8.55;;;;;;;10.76;80.94;101402.19;3618291;39;20067;-67
2023/04/07 07:49:55;;;;;;;13.10;6.85;;;;;;;10.83;79.95;101402.72;3614106;39;20364;-67
2023/04/07 07:52:21;;;;;;;11.23;6.03;;;;;;;10.82;79.25;101407.22;3616335;39;20085;-67
2023/04/07 07:54:50;;;;;;;11.35;6.13;;;;;;;10.77;78.50;101411.97;3611007;39;20053;-67
2023/04/07 07:57:16;;;;;;;10.40;5.63;;;;;;;10.77;78.26;101408.41;3613446;39;20103;-67
2023/04/07 07:59:42;;;;;;;9.98;5.03;;;;;;;10.77;78.01;101408.41;3613900;39;20066;-67
2023/04/07 08:02:09;;;;;;;9.95;5.47;;;;;;;10.46;78.22;101372.41;3612444;39;20544;-68
2023/04/07 08:04:36;;;;;;;8.43;4.65;;;;;;;10.77;77.42;101413.81;3614331;39;20318;-68
2023/04/07 08:07:03;;;;;;;8.32;4.28;;;;;;;10.76;76.56;101410.25;3613607;39;20153;-67
2023/04/07 08:09:30;;;;;;;7.85;4.00;;;;;;;10.73;76.36;101415.78;3616388;39;20057;-68
2023/04/07 08:11:56;;;;;;;6.72;4.22;;;;;;;10.82;76.22;101425.19;3614991;39;20063;-68
2023/04/07 08:14:22;;;;;;;8.50;4.30;;;;;;;10.89;77.18;101424.78;3614106;39;20407;-68
2023/04/07 08:16:47;;;;;;;10.32;4.47;;;;;;;10.97;76.31;101431.56;3613842;39;20058;-68
2023/04/07 08:19:13;;;;;;;9.07;3.97;;;;;;;11.04;76.65;101433.84;3613239;39;21562;-68
2023/04/07 08:21:39;;;;;;;9.35;4.47;;;;;;;11.08;75.63;101435.41;3614382;39;20081;-68
2023/04/07 08:24:06;;;;;;;9.13;4.60;;;;;;;11.17;75.85;101428.66;3615427;39;20339;-68
2023/04/07 08:26:32;;;;;;;4.70;3.92;;;;;;;11.21;74.96;101434.75;3612946;39;20720;-68
2023/04/07 08:28:57;;;;;;;8.30;3.90;;;;;;;11.19;74.99;101442.03;3618019;39;20054;-69
2023/04/07 08:31:23;;;;;;;6.18;3.78;;;;;;;11.20;75.09;101439.25;3615217;39;20063;-69
2023/04/07 08:33:53;;;;;;;8.40;3.88;;;;;;;10.51;74.31;101337.22;3615480;39;20050;-70
2023/04/07 08:36:20;;;;;;;5.47;3.17;;;;;;;11.13;74.19;101448.59;3617047;39;20050;-70
2023/04/07 08:38:45;;;;;;;7.10;3.72;;;;;;;11.07;74.51;101444.44;3620771;39;20053;-70
2023/04/07 08:41:19;;;;;;;6.20;3.20;;;;;;;11.05;75.53;101457.09;3615517;39;20071;-70
2023/04/07 08:43:48;;;;;;;7.05;2.70;;;;;;;10.14;74.52;101305.06;3614327;39;20055;-70
2023/04/07 08:46:17;;;;;;;11.02;3.15;;;;;;;10.92;74.20;101445.25;3613347;39;20087;-70
2023/04/07 08:48:45;;;;;;;4.32;2.70;;;;;;;10.88;73.24;101454.44;3617911;39;20053;-70
2023/04/07 08:51:14;;;;;;;7.78;2.75;;;;;;;10.80;73.13;101452.16;3615102;39;20133;-70
2023/04/07 08:53:50;;;;;;;5.68;2.40;;;;;;;10.78;73.34;101459.41;3613132;39;20094;-70
2023/04/07 08:56:17;;;;;;;7.03;2.20;;;;;;;10.80;73.09;101468.28;3613781;39;20393;-70
2023/04/07 08:58:47;;;;;;;7.32;2.47;;;;;;;10.72;73.86;101457.09;3613384;39;20057;-70
2023/04/07 09:01:15;;;;;;;6.07;2.30;;;;;;;10.74;73.14;101467.75;3614645;39;20069;-71
2023/04/07 09:03:43;;;;;;;5.93;2.35;;;;;;;10.57;73.03;101441.75;3618651;39;20055;-70
2023/04/07 09:06:12;;;;;;;4.18;2.15;;;;;;;10.79;73.02;101474.63;3614458;39;20071;-69
2023/04/07 09:08:38;;;;;;;4.80;2.33;;;;;;;10.91;73.77;101479.38;3606502;39;20055;-70
2023/04/07 09:11:03;;;;;;;4.43;2.20;;;;;;;10.87;74.22;101450.00;3615100;39;20054;-70
2023/04/07 09:13:30;;;;;;;6.00;2.42;;;;;;;11.12;73.61;101473.78;3616299;39;20477;-71
2023/04/07 09:15:58;;;;;;;5.53;2.33;;;;;;;11.10;72.08;101462.22;3615378;39;20059;-71
2023/04/07 09:18:24;;;;;;;6.43;2.30;;;;;;;11.03;72.17;101442.84;3616341;39;20066;-71
2023/04/07 09:21:04;;;;;;;3.58;2.05;;;;;;;11.32;71.98;101480.75;3613618;39;20354;-71
2023/04/07 09:23:35;;;;;;;5.43;2.72;;;;;;;11.07;70.74;101432.81;3616186;39;20054;-72
2023/04/07 09:26:26;;;;;;;5.07;2.42;;;;;;;11.35;70.71;101491.38;3614238;39;20086;-72
2023/04/07 09:28:58;;;;;;;6.03;2.42;;;;;;;11.35;71.28;101481.50;3613792;39;20108;-72
2023/04/07 09:31:53;;;;;;;7.65;2.45;;;;;;;11.46;71.78;101483.59;3614580;39;20057;-73
2023/04/07 09:34:35;;;;;;;6.38;2.15;;;;;;;11.48;70.21;101475.41;3616770;39;20050;-73
2023/04/07 09:37:02;;;;;;;5.45;2.47;;;;;;;11.39;70.03;101450.75;3613464;39;20058;-74
2023/04/07 09:39:28;;;;;;;9.10;2.60;;;;;;;11.70;70.03;101484.03;3602231;39;20445;-74
2023/04/07 09:41:54;;;;;;;3.72;1.80;;;;;;;11.54;69.91;101458.91;3602884;39;20058;-74
2023/04/07 09:44:24;;;;;;;7.82;2.92;;;;;;;11.76;69.87;101486.38;3614583;39;20050;-74
2023/04/07 09:46:59;;;;;;;7.38;2.20;;;;;;;11.75;69.23;101473.88;3618246;39;20389;-74
2023/04/07 09:49:26;;;;;;;7.43;2.60;;;;;;;11.07;69.43;101341.34;3607976;39;20059;-73
2023/04/07 09:52:06;;;;;;;5.70;1.80;;;;;;;11.75;68.72;101436.16;3619546;39;20049;-74
2023/04/07 09:54:36;;;;;;;6.97;1.83;;;;;;;12.06;68.47;101477.56;3615976;39;20061;-73
2023/04/07 09:57:05;;;;;;;7.78;2.45;;;;;;;12.11;68.81;101478.16;3614971;39;20056;-72
2023/04/07 09:59:34;;;;;;;5.60;2.55;;;;;;;12.10;68.53;101489.03;3602766;39;20404;-72
2023/04/07 10:02:00;;;;;;;7.18;2.20;;;;;;;11.84;68.31;101446.47;3614815;39;20055;-73
2023/04/07 10:04:28;;;;;;;6.53;2.45;;;;;;;11.81;68.02;101448.44;3616965;39;20070;-72
2023/04/07 10:06:55;;;;;;;7.63;2.50;;;;;;;11.91;68.90;101478.44;3617378;39;20050;-72
2023/04/07 10:09:27;;;;;;;6.18;2.47;;;;;;;11.79;69.37;101488.91;3618564;39;20112;-71
2023/04/07 10:11:58;;;;;;;12.27;2.53;;;;;;;11.72;69.32;101490.22;3615716;39;20050;-71
2023/04/07 10:14:31;;;;;;;10.90;2.83;;;;;;;11.42;70.74;101457.78;3616743;39;20055;-71
2023/04/07 10:17:00;;;;;;;10.37;3.03;;;;;;;11.59;71.04;101497.25;3616234;39;20116;-71
2023/04/07 10:19:32;;;;;;;12.70;3.63;;;;;;;11.56;71.17;101494.72;3613766;39;20289;-71
2023/04/07 10:22:02;;;;;;;9.10;3.22;;;;;;;11.39;70.65;101472.28;3616003;39;20051;-71
2023/04/07 10:24:59;;;;;;;8.45;2.65;;;;;;;11.58;70.73;101500.91;3616587;39;20477;-70
2023/04/07 10:27:39;;;;;;;7.90;2.53;;;;;;;11.54;71.46;101507.38;3607233;39;20119;-70
2023/04/07 10:30:14;;;;;;;7.13;2.17;;;;;;;11.52;69.96;101512.88;3605426;39;20047;-70
2023/04/07 10:32:49;;;;;;;8.40;2.17;;;;;;;11.47;70.19;101523.00;3615489;39;20054;-70
2023/04/07 10:35:16;;;;;;;6.70;2.15;;;;;;;11.53;70.42;101521.81;3615983;39;20057;-70
2023/04/07 10:38:07;;;;;;;7.18;2.15;;;;;;;11.59;70.00;101522.34;3617515;39;20058;-70
2023/04/07 10:40:35;;;;;;;6.90;2.08;;;;;;;11.62;68.57;101532.09;3617504;39;20113;-70
2023/04/07 10:43:00;;;;;;;5.00;2.42;;;;;;;11.68;68.61;101520.97;3614918;39;20092;-69
2023/04/07 10:45:44;;;;;;;7.25;2.17;;;;;;;11.76;68.17;101531.31;3615127;39;20075;-69
2023/04/07 10:48:11;;;;;;;;;;;;;;;11.76;68.07;101516.00;3613467;39;20059;-69
2023/04/07 10:50:37;;;;;;;8.35;2.05;;;;;;;11.95;68.31;101528.50;3605419;39;20260;-70
2023/04/07 10:53:12;;;;;;;6.07;1.73;;;;;;;12.00;68.23;101526.41;3612017;39;20110;-69
2023/04/07 10:55:43;;;;;;;6.18;2.08;;;;;;;12.03;67.49;101531.63;3616454;39;20062;-69
2023/04/07 10:58:28;;;;;;;5.85;2.30;;;;;;;12.00;66.46;101527.28;3612800;39;20063;-69
2023/04/07 11:01:02;;;;;;;9.50;2.47;;;;;;;11.92;67.31;101540.31;3617119;39;20521;-69
2023/04/07 11:03:37;;;;;;;9.27;2.40;;;;;;;11.92;67.24;101534.03;3614324;39;20294;-69
2023/04/07 11:06:08;;;;;;;8.55;2.78;;;;;;;11.94;67.65;101532.16;3615121;39;20053;-69
2023/04/07 11:08:37;;;;;;;11.48;2.60;;;;;;;11.98;67.93;101522.94;3614885;39;20123;-69
2023/04/07 11:11:08;;;;;;;5.18;2.10;;;;;;;12.07;67.04;101530.50;3618621;39;20061;-69
2023/04/07 11:13:41;;;;;;;7.22;2.38;;;;;;;11.97;66.13;101505.03;3619907;39;20054;-68
2023/04/07 11:16:08;;;;;;;6.47;2.30;;;;;;;12.17;65.16;101528.13;3616453;39;20047;-69
2023/04/07 11:18:36;;;;;;;9.38;2.30;;;;;;;12.25;64.33;101532.13;3615453;39;20154;-69
2023/04/07 11:21:02;;;;;;;4.85;1.60;;;;;;;12.39;64.86;101528.63;3618579;39;20400;-68
2023/04/07 11:23:40;;;;;;;6.32;1.90;;;;;;;12.52;65.49;101539.56;3606428;39;20333;-69